Nanticoke, Pennsylvania
Current Conditions -  °F | °C
As of 3:35 PM on Friday 21 Nov 2014 (Local Time) from KHZL Reporting Station
Scattered Clouds Scattered Clouds  
Wind Chill: 23°   Ceiling: Unl
Heat Index: 30°   Visibility: 10mi
Dew Point:   Wind: 7mph
Humidity: 34%   Direction: 270°W
Pressure: 30.35"   Gusts: NA
Location:  41.21°N, 76°W
Report Text: KHZL 212035Z AUTO 27006KT 10SM SCT055 M01/M15 A3035 RMK AO2
Loading
Personal Weather Stations






























Interactive Weather Map New forecast layout! Learn more

10-Day Weather Forecast

Advertisements
Track Severe Weather on mobile